Time;durP1;ratioP1;P1;durP2;ratioP2;P2;SDS_P1;SDS_P2;PMS_P1;PMS_P2;Temp;Humidity;BMP_temperature;BMP_pressure;BME280_temperature;BME280_humidity;BME280_pressure;Samples;Min_cycle;Max_cycle;Signal;HPM_P1;HPM_P2
2021/06/10 00:00:57;;;;;;;7.78;5.40;;;;;;;14.75;93.41;98902.28;1729446;81;21621;-73
2021/06/10 00:03:24;;;;;;;7.58;4.53;;;;;;;14.76;93.47;98898.36;1742726;82;21152;-74
2021/06/10 00:05:51;;;;;;;7.30;4.58;;;;;;;14.76;93.59;98901.12;1713240;82;21497;-73
2021/06/10 00:08:17;;;;;;;8.30;4.42;;;;;;;14.75;93.74;98896.75;1728930;82;20992;-73
2021/06/10 00:10:45;;;;;;;8.73;4.20;;;;;;;14.75;93.81;98900.89;1734661;81;20946;-73
2021/06/10 00:13:14;;;;;;;8.00;4.40;;;;;;;14.73;93.69;98898.49;1726217;82;20967;-73
2021/06/10 00:15:42;;;;;;;9.15;4.72;;;;;;;14.72;93.67;98898.27;1725290;81;20924;-73
2021/06/10 00:18:09;;;;;;;9.45;4.12;;;;;;;14.72;93.77;98891.94;1715583;82;21458;-73
2021/06/10 00:20:37;;;;;;;9.10;4.17;;;;;;;14.72;93.72;98897.47;1735994;82;20976;-73
2021/06/10 00:23:05;;;;;;;7.58;3.90;;;;;;;14.72;93.77;98893.33;1723582;81;20951;-73
2021/06/10 00:25:32;;;;;;;4.67;4.00;;;;;;;14.70;93.94;98886.78;1723887;82;21637;-73
2021/06/10 00:27:59;;;;;;;7.60;4.87;;;;;;;14.68;93.86;98880.81;1706197;83;21149;-73
2021/06/10 00:30:26;;;;;;;11.03;4.72;;;;;;;14.67;93.98;98879.78;1726060;82;21047;-73
2021/06/10 00:32:53;;;;;;;8.83;4.60;;;;;;;14.66;94.04;98879.56;1716467;82;21598;-73
2021/06/10 00:35:21;;;;;;;6.55;4.17;;;;;;;14.64;94.03;98874.40;1708991;82;20923;-73
2021/06/10 00:37:47;;;;;;;11.08;4.40;;;;;;;14.64;94.09;98869.45;1727700;82;20996;-73
2021/06/10 00:40:14;;;;;;;4.40;3.52;;;;;;;14.63;94.28;98870.61;1730936;82;21059;-74
2021/06/10 00:42:41;;;;;;;9.35;5.12;;;;;;;14.63;94.47;98867.85;1717714;82;20985;-73
2021/06/10 00:45:10;;;;;;;8.08;4.35;;;;;;;14.63;94.44;98866.47;1720665;82;20975;-73
2021/06/10 00:47:36;;;;;;;7.95;4.30;;;;;;;14.63;94.37;98864.51;1721539;82;21515;-73
2021/06/10 00:50:05;;;;;;;6.22;4.30;;;;;;;14.65;94.28;98858.63;1716144;82;21017;-73
2021/06/10 00:52:31;;;;;;;6.45;4.35;;;;;;;14.66;94.16;98843.66;1723975;81;21134;-73
2021/06/10 00:54:58;;;;;;;5.40;4.30;;;;;;;14.68;94.04;98844.09;1725595;81;20983;-73
2021/06/10 00:57:25;;;;;;;10.82;4.20;;;;;;;14.68;93.84;98842.72;1710791;82;21510;-73
2021/06/10 00:59:51;;;;;;;7.78;3.98;;;;;;;14.67;93.83;98850.78;1730350;82;20947;-74
2021/06/10 01:02:17;;;;;;;7.67;3.95;;;;;;;14.66;93.90;98850.56;1705933;82;21482;-74
2021/06/10 01:04:44;;;;;;;8.35;4.72;;;;;;;14.64;93.96;98844.59;1731300;82;21105;-74
2021/06/10 01:07:28;;;;;;;7.35;4.45;;;;;;;14.62;94.05;98842.77;1726102;82;21041;-74
2021/06/10 01:10:04;;;;;;;4.83;3.92;;;;;;;14.58;94.12;98842.69;1717564;82;20883;-73
2021/06/10 01:13:05;;;;;;;6.05;4.92;;;;;;;14.53;94.21;98846.52;1710542;82;21035;-73
2021/06/10 01:15:36;;;;;;;9.28;5.45;;;;;;;14.52;94.64;98846.30;1736820;82;21522;-73
2021/06/10 01:18:03;;;;;;;6.53;4.92;;;;;;;14.51;94.73;98850.80;1669244;83;21147;-74
2021/06/10 01:20:30;;;;;;;8.45;5.10;;;;;;;14.49;94.93;98855.30;1724542;82;21466;-73
2021/06/10 01:23:05;;;;;;;9.73;5.05;;;;;;;14.49;95.20;98850.36;1694989;83;21083;-73
2021/06/10 01:25:58;;;;;;;9.30;5.53;;;;;;;14.46;95.15;98856.59;1718399;82;20948;-73
2021/06/10 01:28:29;;;;;;;6.47;4.95;;;;;;;14.43;95.45;98854.00;1725302;82;20849;-73
2021/06/10 01:30:58;;;;;;;10.43;5.65;;;;;;;14.43;95.78;98854.00;1722125;82;21487;-74
2021/06/10 01:33:28;;;;;;;8.85;4.90;;;;;;;14.44;96.14;98855.58;1727335;82;21100;-74
2021/06/10 01:36:05;;;;;;;11.95;5.37;;;;;;;14.46;96.34;98856.59;1714298;82;20868;-73
2021/06/10 01:38:31;;;;;;;9.25;5.40;;;;;;;14.48;96.45;98859.23;1707333;83;20932;-73
2021/06/10 01:40:58;;;;;;;12.03;4.83;;;;;;;14.47;96.46;98856.24;1714405;82;21021;-73
2021/06/10 01:43:28;;;;;;;7.12;4.97;;;;;;;14.47;96.60;98863.14;1717498;82;21568;-73
2021/06/10 01:45:58;;;;;;;8.88;5.05;;;;;;;14.45;96.58;98862.70;1718643;82;20931;-73
2021/06/10 01:48:24;;;;;;;8.33;5.42;;;;;;;14.44;96.73;98868.00;1717630;82;21030;-74
2021/06/10 01:50:55;;;;;;;13.20;5.58;;;;;;;14.45;97.15;98860.52;1715813;82;21065;-73
2021/06/10 01:53:22;;;;;;;8.05;5.78;;;;;;;14.45;96.91;98859.94;1699554;82;21055;-74
2021/06/10 01:55:50;;;;;;;10.48;6.05;;;;;;;14.44;97.14;98865.85;1735630;82;21114;-73
2021/06/10 01:58:17;;;;;;;11.28;5.78;;;;;;;14.46;97.31;98863.50;1697860;82;21106;-73
2021/06/10 02:00:46;;;;;;;8.95;5.72;;;;;;;14.46;97.44;98860.16;1700830;82;21079;-73
2021/06/10 02:03:12;;;;;;;8.00;5.17;;;;;;;14.49;97.49;98861.41;1728689;82;21489;-73
2021/06/10 02:05:40;;;;;;;9.78;6.55;;;;;;;14.49;97.49;98860.83;1719923;82;21104;-74
2021/06/10 02:08:11;;;;;;;9.65;6.12;;;;;;;14.48;97.72;98857.84;1718455;82;21526;-73
2021/06/10 02:10:38;;;;;;;6.58;5.67;;;;;;;14.49;97.80;98859.45;1722305;82;21174;-73
2021/06/10 02:13:07;;;;;;;7.17;5.72;;;;;;;14.49;97.82;98853.92;1719504;81;21920;-73
2021/06/10 02:15:35;;;;;;;9.30;6.37;;;;;;;14.48;97.88;98857.84;1721627;82;21014;-74
2021/06/10 02:18:02;;;;;;;10.82;6.53;;;;;;;14.49;98.25;98858.64;1719400;82;21000;-74
2021/06/10 02:20:29;;;;;;;13.30;6.58;;;;;;;14.50;98.39;98861.62;1700506;82;21186;-74
2021/06/10 02:22:55;;;;;;;12.45;6.75;;;;;;;14.51;98.49;98864.03;1701243;82;21003;-77
2021/06/10 02:25:21;;;;;;;7.78;6.42;;;;;;;14.52;98.57;98861.49;1728847;82;20940;-74
2021/06/10 02:27:48;;;;;;;10.10;6.80;;;;;;;14.54;98.73;98863.90;1721803;82;21059;-74
2021/06/10 02:30:15;;;;;;;12.33;6.17;;;;;;;14.56;98.98;98861.58;1717784;82;20891;-73
2021/06/10 02:32:42;;;;;;;8.18;6.05;;;;;;;14.63;99.17;98865.09;1701155;83;22157;-74
2021/06/10 02:35:11;;;;;;;9.73;6.60;;;;;;;14.68;99.04;98863.44;1722870;82;20951;-74
2021/06/10 02:37:39;;;;;;;13.58;6.65;;;;;;;14.73;98.97;98864.54;1726471;82;21520;-75
2021/06/10 02:40:09;;;;;;;8.15;6.12;;;;;;;14.78;98.88;98868.41;1708812;82;20950;-75
2021/06/10 02:42:38;;;;;;;8.48;6.78;;;;;;;14.82;98.75;98863.77;1716213;82;21573;-75
2021/06/10 02:45:06;;;;;;;11.00;6.90;;;;;;;14.84;98.60;98861.44;1716606;82;21133;-74
2021/06/10 02:47:33;;;;;;;9.28;6.62;;;;;;;14.84;98.45;98863.63;1709331;82;21042;-74
2021/06/10 02:50:00;;;;;;;9.85;6.53;;;;;;;14.86;98.55;98864.06;1718226;82;20944;-74
2021/06/10 02:52:26;;;;;;;12.18;7.00;;;;;;;14.88;98.48;98863.70;1718633;82;21001;-73
2021/06/10 02:54:53;;;;;;;8.78;6.53;;;;;;;14.90;98.57;98860.00;1730902;82;21145;-74
2021/06/10 02:57:21;;;;;;;13.22;7.08;;;;;;;14.94;98.77;98862.27;1694736;83;21471;-73
2021/06/10 02:59:47;;;;;;;11.00;6.45;;;;;;;14.97;98.86;98860.73;1722065;82;20994;-73
2021/06/10 03:02:15;;;;;;;8.83;7.08;;;;;;;15.01;98.67;98858.86;1717083;82;21077;-73
2021/06/10 03:04:44;;;;;;;9.15;6.62;;;;;;;15.04;98.64;98859.48;1718818;82;21435;-73
2021/06/10 03:07:16;;;;;;;8.93;6.90;;;;;;;15.07;98.55;98856.80;1713842;82;21106;-73
2021/06/10 03:09:44;;;;;;;11.70;7.08;;;;;;;15.09;98.58;98858.62;1728907;82;21766;-73
2021/06/10 03:12:11;;;;;;;10.32;6.83;;;;;;;15.16;98.75;98859.36;1724289;81;20978;-72
2021/06/10 03:14:39;;;;;;;7.70;5.85;;;;;;;15.22;98.44;98865.40;1720440;82;21478;-73
2021/06/10 03:17:08;;;;;;;14.03;7.28;;;;;;;15.29;99.20;98856.67;1715287;82;20955;-73
2021/06/10 03:19:35;;;;;;;13.65;7.35;;;;;;;15.37;98.89;98855.66;1724342;82;21429;-73
2021/06/10 03:22:02;;;;;;;7.75;6.17;;;;;;;15.48;98.78;98856.67;1721322;82;21113;-76
2021/06/10 03:24:29;;;;;;;10.20;7.25;;;;;;;15.52;97.75;98856.74;1706258;81;20925;-75
2021/06/10 03:26:55;;;;;;;10.68;7.08;;;;;;;15.55;97.43;98865.70;1694530;82;20947;-74
2021/06/10 03:29:22;;;;;;;10.00;6.42;;;;;;;15.59;97.33;98862.45;1703823;82;20991;-73
2021/06/10 03:31:48;;;;;;;10.58;7.30;;;;;;;15.65;96.73;98865.69;1696904;83;21471;-77
2021/06/10 03:34:15;;;;;;;9.73;7.47;;;;;;;15.68;96.76;98869.91;1695104;84;21086;-73
2021/06/10 03:36:41;;;;;;;11.00;7.22;;;;;;;15.75;96.68;98870.63;1694020;83;21622;-77
2021/06/10 03:39:07;;;;;;;13.20;8.45;;;;;;;15.79;96.02;98870.11;1694080;83;20876;-74
2021/06/10 03:41:35;;;;;;;14.35;7.20;;;;;;;15.79;95.67;98869.53;1612670;86;20993;-73
2021/06/10 03:44:02;;;;;;;8.23;6.95;;;;;;;15.82;95.70;98874.92;1669645;85;20968;-73
2021/06/10 03:46:29;;;;;;;8.63;6.55;;;;;;;15.85;95.83;98868.66;1672221;85;21182;-74
2021/06/10 03:48:55;;;;;;;12.23;7.03;;;;;;;15.90;96.01;98875.27;1666605;84;21550;-73
2021/06/10 03:51:22;;;;;;;14.70;7.47;;;;;;;15.93;95.30;98870.97;1670713;84;20963;-74
2021/06/10 03:53:49;;;;;;;10.48;7.12;;;;;;;15.93;95.24;98875.92;1659707;84;20912;-73
2021/06/10 03:56:16;;;;;;;8.10;7.25;;;;;;;15.95;94.93;98879.70;1675721;84;20889;-73
2021/06/10 03:58:42;;;;;;;10.35;6.75;;;;;;;15.96;94.54;98877.95;1685529;83;21548;-72
2021/06/10 04:01:09;;;;;;;11.50;7.47;;;;;;;15.96;94.80;98873.80;1685348;83;20984;-72
2021/06/10 04:03:35;;;;;;;11.85;8.05;;;;;;;15.97;94.90;98874.60;1689028;84;20960;-73
2021/06/10 04:06:02;;;;;;;13.72;7.30;;;;;;;16.00;95.12;98869.13;1681191;84;21130;-73
2021/06/10 04:08:29;;;;;;;16.35;8.18;;;;;;;16.02;94.92;98875.69;1671730;85;20952;-73
2021/06/10 04:10:55;;;;;;;17.85;8.40;;;;;;;16.03;95.07;98866.21;1686635;83;21146;-72
2021/06/10 04:13:23;;;;;;;11.45;8.05;;;;;;;16.07;95.10;98874.00;1705404;82;21569;-71
2021/06/10 04:15:50;;;;;;;11.55;8.60;;;;;;;16.09;94.71;98868.89;1714336;82;20889;-72
2021/06/10 04:18:20;;;;;;;9.48;7.72;;;;;;;16.12;94.59;98864.00;1733133;82;20976;-70
2021/06/10 04:20:49;;;;;;;10.05;7.35;;;;;;;16.17;94.76;98868.62;1730261;81;20925;-71
2021/06/10 04:23:16;;;;;;;11.65;7.50;;;;;;;16.23;94.16;98864.16;1727427;81;21115;-70
2021/06/10 04:25:42;;;;;;;18.02;9.38;;;;;;;16.25;93.89;98865.39;1734711;81;20984;-68
2021/06/10 04:28:08;;;;;;;13.80;7.97;;;;;;;16.28;94.14;98864.65;1723981;81;21013;-70
2021/06/10 04:30:35;;;;;;;7.97;7.03;;;;;;;16.33;94.21;98865.73;1735108;82;21103;-69
2021/06/10 04:33:02;;;;;;;9.70;7.20;;;;;;;16.39;93.47;98864.83;1726123;82;21359;-69
2021/06/10 04:35:28;;;;;;;8.83;7.33;;;;;;;16.42;93.18;98864.89;1726116;82;21101;-69
2021/06/10 04:37:55;;;;;;;9.38;7.67;;;;;;;16.48;92.98;98866.77;1727094;82;21409;-69
2021/06/10 04:40:21;;;;;;;11.85;8.80;;;;;;;16.54;92.55;98864.48;1721973;81;20964;-69
2021/06/10 04:42:47;;;;;;;10.10;8.20;;;;;;;16.56;91.97;98858.78;1727029;82;21079;-69
2021/06/10 04:45:14;;;;;;;11.33;8.25;;;;;;;16.59;92.26;98861.39;1732969;81;20982;-70
2021/06/10 04:47:40;;;;;;;11.28;8.05;;;;;;;16.66;92.08;98865.69;1728849;82;21052;-68
2021/06/10 04:50:08;;;;;;;12.60;8.75;;;;;;;16.71;91.30;98868.14;1726380;82;20880;-69
2021/06/10 04:52:35;;;;;;;11.08;8.03;;;;;;;16.72;91.40;98868.36;1723587;82;20951;-68
2021/06/10 04:55:01;;;;;;;11.78;7.97;;;;;;;16.76;91.45;98872.75;1723318;81;20911;-72
2021/06/10 04:57:28;;;;;;;12.50;8.00;;;;;;;16.82;91.52;98873.23;1723124;81;20909;-70
2021/06/10 04:59:54;;;;;;;17.95;8.63;;;;;;;16.91;92.12;98873.77;1722877;82;21824;-71
2021/06/10 05:02:21;;;;;;;9.80;8.15;;;;;;;16.99;91.75;98878.24;1725812;81;20852;-70
2021/06/10 05:04:47;;;;;;;11.35;7.72;;;;;;;17.04;91.07;98873.76;1727646;81;21411;-70
2021/06/10 05:07:13;;;;;;;11.28;7.97;;;;;;;17.14;90.02;98883.41;1722690;81;21082;-71
2021/06/10 05:09:40;;;;;;;12.47;7.67;;;;;;;17.20;90.19;98879.72;1724801;81;21662;-71
2021/06/10 05:12:08;;;;;;;12.33;8.10;;;;;;;17.29;90.32;98878.27;1719361;82;21551;-72
2021/06/10 05:14:35;;;;;;;10.20;8.50;;;;;;;17.43;90.77;98877.61;1732717;81;20947;-72
2021/06/10 05:17:01;;;;;;;13.85;8.13;;;;;;;17.57;89.59;98881.16;1722267;81;21057;-72
2021/06/10 05:19:27;;;;;;;9.95;8.08;;;;;;;17.65;88.71;98880.06;1698472;83;20964;-73
2021/06/10 05:21:54;;;;;;;11.80;8.05;;;;;;;17.69;88.13;98876.19;1717427;81;20963;-71
2021/06/10 05:24:23;;;;;;;9.78;8.08;;;;;;;17.73;89.02;98882.58;1733748;81;22135;-71
2021/06/10 05:26:50;;;;;;;15.72;8.10;;;;;;;17.84;88.48;98880.51;1727870;81;21694;-71
2021/06/10 05:29:17;;;;;;;11.10;7.72;;;;;;;17.93;87.08;98872.64;1731235;81;20983;-71
2021/06/10 05:31:43;;;;;;;9.80;8.13;;;;;;;18.00;87.16;98879.08;1710962;83;21032;-71
2021/06/10 05:34:10;;;;;;;10.18;7.30;;;;;;;18.11;87.44;98875.81;1718303;82;21044;-72
2021/06/10 05:36:36;;;;;;;10.80;7.67;;;;;;;18.23;86.61;98876.12;1723933;81;21110;-70
2021/06/10 05:39:03;;;;;;;13.08;7.58;;;;;;;18.28;85.50;98874.39;1726182;81;20962;-70
2021/06/10 05:41:31;;;;;;;10.15;8.20;;;;;;;18.32;85.09;98874.42;1717016;82;20957;-69
2021/06/10 05:43:58;;;;;;;13.48;7.87;;;;;;;18.36;85.00;98877.44;1678068;81;21448;-69
2021/06/10 05:46:24;;;;;;;9.20;8.03;;;;;;;18.40;85.04;98874.09;1730766;81;21098;-69
2021/06/10 05:48:50;;;;;;;10.03;8.20;;;;;;;18.49;85.24;98875.94;1731154;82;21074;-73
2021/06/10 05:51:17;;;;;;;12.85;8.28;;;;;;;18.60;84.50;98880.78;1708058;81;21026;-70
2021/06/10 05:53:44;;;;;;;10.93;7.55;;;;;;;18.69;84.35;98884.06;1720120;81;21533;-70
2021/06/10 05:56:10;;;;;;;12.65;7.90;;;;;;;18.76;81.81;98879.95;1717640;82;20958;-69
2021/06/10 05:58:38;;;;;;;8.05;7.10;;;;;;;18.81;82.47;98880.98;1714612;82;20861;-70
2021/06/10 06:01:05;;;;;;;16.42;8.18;;;;;;;18.90;82.41;98878.66;1717766;82;21095;-68
2021/06/10 06:03:32;;;;;;;9.05;7.58;;;;;;;19.04;81.31;98882.92;1723053;80;21023;-70
2021/06/10 06:05:59;;;;;;;9.70;6.35;;;;;;;19.20;81.89;98879.00;1710935;82;21024;-68
2021/06/10 06:08:26;;;;;;;8.73;7.00;;;;;;;19.44;82.08;98886.69;1712128;82;20971;-69
2021/06/10 06:10:53;;;;;;;7.30;6.50;;;;;;;19.63;80.45;98891.97;1715642;82;20959;-68
2021/06/10 06:13:33;;;;;;;8.85;6.03;;;;;;;19.70;79.24;98885.01;1721030;82;21115;-68
2021/06/10 06:15:50;;;;;;;9.00;5.65;;;;;;;19.69;78.42;98893.16;1721070;82;20998;-69
2021/06/10 06:18:18;;;;;;;5.83;5.22;;;;;;;19.66;77.30;98890.36;1730829;82;21004;-70
2021/06/10 06:20:45;;;;;;;7.58;5.83;;;;;;;19.55;76.56;98884.78;1727163;82;21082;-69
2021/06/10 06:23:11;;;;;;;10.70;5.37;;;;;;;19.46;77.02;98885.70;1720318;82;21006;-69
2021/06/10 06:25:38;;;;;;;6.47;5.03;;;;;;;19.41;77.29;98890.25;1720500;82;21198;-68
2021/06/10 06:28:04;;;;;;;6.20;5.42;;;;;;;19.34;77.03;98894.39;1720096;82;21466;-74
2021/06/10 06:30:31;;;;;;;8.83;5.95;;;;;;;19.29;77.64;98894.76;1722619;82;21007;-72
2021/06/10 06:32:57;;;;;;;13.78;8.03;;;;;;;19.25;77.64;98895.33;1718959;82;20999;-74
2021/06/10 06:35:23;;;;;;;7.40;6.55;;;;;;;19.25;78.73;98893.34;1716312;82;20970;-75
2021/06/10 06:37:50;;;;;;;10.10;6.53;;;;;;;19.27;78.96;98893.76;1718419;82;22133;-77
2021/06/10 06:40:19;;;;;;;10.95;6.33;;;;;;;19.25;79.30;98897.52;1707530;83;20975;-78
2021/06/10 06:42:45;;;;;;;11.43;6.53;;;;;;;19.29;79.36;98889.99;1726037;82;21008;-74
2021/06/10 06:45:12;;;;;;;8.35;6.40;;;;;;;19.33;78.40;98894.19;1710758;82;21098;-76
2021/06/10 06:47:39;;;;;;;9.60;6.45;;;;;;;19.36;79.38;98894.80;1707876;82;20959;-75
2021/06/10 06:50:06;;;;;;;9.58;6.50;;;;;;;19.41;78.34;98889.66;1721155;82;22124;-74
2021/06/10 06:52:32;;;;;;;7.03;6.33;;;;;;;19.44;78.05;98897.82;1721783;82;21240;-76
2021/06/10 06:54:59;;;;;;;8.25;6.75;;;;;;;19.41;78.44;98897.20;1714155;82;20911;-71
2021/06/10 06:57:25;;;;;;;12.30;6.85;;;;;;;19.49;79.57;98892.47;1709884;82;20951;-70
2021/06/10 06:59:52;;;;;;;6.65;5.62;;;;;;;19.59;79.09;98895.93;1718057;82;21075;-72
2021/06/10 07:02:18;;;;;;;10.25;6.62;;;;;;;19.70;79.00;98896.15;1723658;82;21133;-66
2021/06/10 07:04:45;;;;;;;8.25;6.20;;;;;;;19.82;78.67;98894.20;1733761;82;20940;-70
2021/06/10 07:07:11;;;;;;;7.92;6.03;;;;;;;19.94;77.93;98896.63;1726753;82;21487;-75
2021/06/10 07:09:38;;;;;;;9.85;7.20;;;;;;;20.05;77.82;98898.84;1728173;82;21150;-74
2021/06/10 07:12:08;;;;;;;8.60;7.37;;;;;;;20.09;76.44;98896.86;1720779;82;20947;-73
2021/06/10 07:14:35;;;;;;;7.55;6.78;;;;;;;20.14;77.64;98895.08;1733477;82;21146;-71
2021/06/10 07:17:03;;;;;;;7.62;5.75;;;;;;;20.38;77.82;98891.53;1730862;82;20913;-72
2021/06/10 07:19:29;;;;;;;7.50;5.87;;;;;;;20.67;76.98;98894.34;1726276;82;21431;-74
2021/06/10 07:21:55;;;;;;;9.98;6.28;;;;;;;20.93;75.21;98886.91;1719715;82;20895;-71
2021/06/10 07:24:22;;;;;;;10.35;5.92;;;;;;;21.13;72.36;98890.07;1733496;82;20906;-75
2021/06/10 07:26:49;;;;;;;8.60;6.12;;;;;;;21.25;73.51;98887.48;1725260;81;21146;-70
2021/06/10 07:29:16;;;;;;;10.82;5.00;;;;;;;21.42;71.22;98885.21;1721267;82;20901;-72
2021/06/10 07:31:43;;;;;;;6.60;5.12;;;;;;;21.53;70.98;98888.77;1730821;82;21582;-69
2021/06/10 07:34:10;;;;;;;9.28;5.47;;;;;;;21.66;69.19;98886.31;1740481;82;20951;-69
2021/06/10 07:36:37;;;;;;;5.92;5.33;;;;;;;21.72;69.63;98889.68;1719029;81;21003;-69
2021/06/10 07:39:04;;;;;;;7.78;5.60;;;;;;;21.75;70.27;98888.07;1731304;82;21499;-75
2021/06/10 07:41:31;;;;;;;7.08;5.05;;;;;;;21.74;69.02;98885.88;1726581;82;21005;-73
2021/06/10 07:43:57;;;;;;;5.00;4.50;;;;;;;21.74;68.29;98881.69;1720836;82;21514;-74
2021/06/10 07:46:24;;;;;;;13.48;7.58;;;;;;;21.74;68.53;98892.06;1722491;82;20989;-74
2021/06/10 07:48:50;;;;;;;7.28;4.67;;;;;;;21.78;68.10;98882.27;1724270;82;20928;-74
2021/06/10 07:51:17;;;;;;;6.12;4.60;;;;;;;21.88;67.07;98887.02;1736477;82;21168;-73
2021/06/10 07:53:44;;;;;;;6.53;4.72;;;;;;;22.05;68.78;98892.51;1726168;82;20911;-74
2021/06/10 07:56:10;;;;;;;6.22;4.40;;;;;;;22.31;65.40;98886.95;1721417;81;20942;-74
2021/06/10 07:58:37;;;;;;;7.08;4.42;;;;;;;22.54;64.16;98880.76;1714858;82;21004;-73
2021/06/10 08:01:03;;;;;;;5.58;4.03;;;;;;;22.80;65.37;98877.18;1707657;83;21043;-73
2021/06/10 08:03:30;;;;;;;4.85;3.62;;;;;;;22.97;64.15;98886.80;1704300;83;21443;-73
2021/06/10 08:05:59;;;;;;;7.83;3.40;;;;;;;23.00;62.19;98892.97;1697627;83;21026;-73
2021/06/10 08:08:25;;;;;;;4.40;3.67;;;;;;;22.91;62.10;98885.66;1713087;82;20988;-73
2021/06/10 08:10:53;;;;;;;4.33;3.27;;;;;;;22.87;61.59;98887.70;1707481;83;21041;-73
2021/06/10 08:13:25;;;;;;;6.10;2.80;;;;;;;22.89;61.47;98886.69;1697421;83;21482;-73
2021/06/10 08:15:50;;;;;;;3.33;3.02;;;;;;;23.14;60.13;98887.02;1707784;82;21160;-74
2021/06/10 08:18:19;;;;;;;8.05;3.12;;;;;;;23.53;60.36;98894.98;1703384;83;20970;-73
2021/06/10 08:20:45;;;;;;;5.40;2.98;;;;;;;23.92;59.12;98883.28;1713334;83;20987;-74
2021/06/10 08:23:11;;;;;;;7.55;2.77;;;;;;;24.13;57.51;98885.00;1708595;83;21507;-72
2021/06/10 08:25:43;;;;;;;4.17;3.20;;;;;;;24.17;56.37;98887.14;1714467;83;21011;-73
2021/06/10 08:28:06;;;;;;;4.95;3.37;;;;;;;24.14;57.42;98887.38;1710454;81;21137;-73
2021/06/10 08:30:32;;;;;;;8.68;3.27;;;;;;;24.04;56.72;98886.92;1704747;82;20900;-73
2021/06/10 08:32:59;;;;;;;6.80;3.37;;;;;;;23.81;56.51;98893.84;1716598;82;21031;-73
2021/06/10 08:35:25;;;;;;;6.85;3.20;;;;;;;23.61;56.60;98887.52;1726144;81;20963;-73
2021/06/10 08:37:53;;;;;;;6.70;3.27;;;;;;;23.64;57.49;98885.88;1720500;82;21439;-74
2021/06/10 08:40:19;;;;;;;7.58;2.95;;;;;;;23.90;56.85;98891.32;1729783;82;21163;-73
2021/06/10 08:42:46;;;;;;;2.50;2.30;;;;;;;24.28;54.18;98893.39;1735496;82;20895;-74
2021/06/10 08:45:17;;;;;;;3.15;2.85;;;;;;;24.43;52.65;98889.77;1725018;82;21112;-74
2021/06/10 08:47:48;;;;;;;3.45;2.92;;;;;;;24.40;53.57;98892.80;1731474;82;28477;-74
2021/06/10 08:50:22;;;;;;;3.87;3.58;;;;;;;24.42;54.92;98890.98;1724044;82;21028;-75
2021/06/10 08:52:50;;;;;;;6.12;3.37;;;;;;;24.41;55.16;98895.00;1727239;82;21601;-73
2021/06/10 08:55:16;;;;;;;3.90;3.17;;;;;;;24.41;55.22;98890.19;1732462;81;20900;-73
2021/06/10 08:57:43;;;;;;;3.80;3.40;;;;;;;24.36;54.96;98892.86;1733456;82;21036;-73
2021/06/10 09:00:10;;;;;;;4.03;3.58;;;;;;;24.59;55.80;98885.70;1737795;81;21460;-73
2021/06/10 09:02:37;;;;;;;4.45;3.58;;;;;;;24.87;54.33;98881.59;1727214;81;21172;-73
2021/06/10 09:05:06;;;;;;;4.75;3.15;;;;;;;24.93;55.17;98879.27;1731445;82;21209;-73
2021/06/10 09:07:37;;;;;;;5.05;3.45;;;;;;;24.88;52.73;98881.16;1729481;82;20923;-73
2021/06/10 09:10:06;;;;;;;4.22;3.67;;;;;;;24.96;54.18;98886.86;1736672;81;21007;-72
2021/06/10 09:12:53;;;;;;;3.83;3.37;;;;;;;25.33;54.35;98877.96;1736456;82;21428;-72
2021/06/10 09:15:21;;;;;;;3.95;3.12;;;;;;;25.72;52.61;98876.38;1695997;82;21002;-74
2021/06/10 09:17:48;;;;;;;4.90;3.50;;;;;;;25.94;48.65;98878.91;1722636;82;21094;-73
2021/06/10 09:20:27;;;;;;;3.45;3.15;;;;;;;25.65;49.74;98887.16;1739872;82;21490;-73
2021/06/10 09:23:23;;;;;;;4.10;3.30;;;;;;;25.53;48.63;98875.92;1697005;83;20941;-74
2021/06/10 09:26:00;;;;;;;3.98;3.40;;;;;;;25.60;51.96;98875.78;1657938;85;21044;-73
2021/06/10 09:28:34;;;;;;;3.90;3.45;;;;;;;25.70;51.71;98873.21;1673733;85;21088;-72
2021/06/10 09:31:01;;;;;;;3.95;3.52;;;;;;;25.81;48.92;98866.75;1738467;81;21074;-72
2021/06/10 09:33:41;;;;;;;5.35;3.55;;;;;;;25.86;49.19;98859.20;1735645;82;20936;-72
2021/06/10 09:36:08;;;;;;;4.35;3.62;;;;;;;25.88;48.21;98858.95;1733984;82;20972;-73
2021/06/10 09:38:34;;;;;;;7.95;3.92;;;;;;;25.89;48.81;98858.34;1732410;82;20994;-74
2021/06/10 09:41:06;;;;;;;7.72;3.37;;;;;;;25.97;49.04;98850.72;1734398;82;20921;-74
2021/06/10 09:43:43;;;;;;;6.97;3.87;;;;;;;26.13;47.37;98850.54;1725977;82;21112;-73
2021/06/10 09:46:10;;;;;;;4.10;3.67;;;;;;;26.20;47.56;98846.95;1732184;81;21583;-73
2021/06/10 09:48:36;;;;;;;6.33;3.83;;;;;;;26.25;46.90;98835.17;1699079;82;21075;-73
2021/06/10 09:51:03;;;;;;;3.80;3.45;;;;;;;26.33;48.57;98829.41;1732020;82;20985;-72
2021/06/10 09:53:35;;;;;;;7.65;4.28;;;;;;;26.61;49.42;98828.67;1732264;81;21102;-72
2021/06/10 09:56:07;;;;;;;5.62;4.15;;;;;;;26.82;45.93;98821.70;1731434;81;21147;-74
2021/06/10 09:58:39;;;;;;;4.20;3.80;;;;;;;26.64;46.72;98831.39;1720738;82;20967;-73
2021/06/10 10:01:20;;;;;;;3.72;2.92;;;;;;;26.65;46.13;98837.81;1740936;81;20894;-75
2021/06/10 10:03:48;;;;;;;12.33;2.75;;;;;;;26.53;45.85;98847.00;1736130;81;20989;-74
2021/06/10 10:06:24;;;;;;;4.80;2.05;;;;;;;26.03;42.14;98839.71;1717483;82;21588;-74
2021/06/10 10:08:55;;;;;;;3.42;2.30;;;;;;;25.28;42.20;98848.97;1726966;82;21089;-74
2021/06/10 10:11:23;;;;;;;5.60;2.10;;;;;;;24.53;44.37;98857.33;1725096;82;21562;-75
2021/06/10 10:13:52;;;;;;;4.15;2.50;;;;;;;23.93;46.44;98859.64;1718031;82;20956;-73
2021/06/10 10:16:33;;;;;;;5.40;2.45;;;;;;;23.56;47.89;98866.17;1734923;82;21462;-74
2021/06/10 10:19:03;;;;;;;4.67;2.17;;;;;;;23.47;49.66;98868.05;1722419;82;21025;-74
2021/06/10 10:21:31;;;;;;;7.30;2.65;;;;;;;23.50;51.50;98860.20;1708369;81;21073;-74
2021/06/10 10:24:03;;;;;;;2.52;1.87;;;;;;;23.51;51.44;98856.19;1684626;83;21102;-74
2021/06/10 10:26:31;;;;;;;3.02;2.15;;;;;;;23.49;51.92;98857.82;1712632;82;21023;-74
2021/06/10 10:28:58;;;;;;;4.47;2.35;;;;;;;23.42;53.63;98858.70;1692912;82;22233;-74
2021/06/10 10:31:26;;;;;;;3.70;2.40;;;;;;;23.46;51.95;98853.05;1712761;82;21109;-74
2021/06/10 10:33:53;;;;;;;2.45;2.25;;;;;;;23.41;52.87;98858.52;1687759;82;21133;-74
2021/06/10 10:36:31;;;;;;;3.72;2.87;;;;;;;23.43;55.79;98860.89;1711387;81;20903;-74
2021/06/10 10:39:04;;;;;;;3.80;2.98;;;;;;;23.60;58.07;98862.11;1722704;81;21526;-75
2021/06/10 10:41:31;;;;;;;3.40;3.10;;;;;;;23.73;57.52;98864.33;1725576;80;21028;-75
2021/06/10 10:44:20;;;;;;;3.52;3.22;;;;;;;23.58;56.49;98864.53;1721880;82;21071;-75
2021/06/10 10:46:42;;;;;;;3.70;3.40;;;;;;;23.32;57.89;98867.41;1720298;81;21145;-74
2021/06/10 10:49:22;;;;;;;6.12;3.40;;;;;;;23.08;59.31;98867.11;1720562;82;21063;-73
2021/06/10 10:51:48;;;;;;;4.25;3.65;;;;;;;22.91;59.78;98859.08;1719602;81;20948;-75
2021/06/10 10:54:34;;;;;;;5.08;4.53;;;;;;;22.67;60.38;98853.88;1710083;82;22564;-76
2021/06/10 10:57:01;;;;;;;5.60;4.22;;;;;;;22.48;61.91;98843.89;1722535;82;20961;-75
2021/06/10 10:59:41;;;;;;;4.97;4.28;;;;;;;22.31;62.99;98842.81;1708101;82;21130;-73
2021/06/10 11:02:13;;;;;;;7.85;4.20;;;;;;;22.19;62.83;98842.70;1692019;82;21755;-73
2021/06/10 11:04:57;;;;;;;;;;;;;;;22.09;63.30;98846.37;1737977;81;21035;-73
2021/06/10 11:07:41;;;;;;;7.78;4.80;;;;;;;22.01;64.28;98843.39;1702683;83;20162;-72
2021/06/10 11:10:15;;;;;;;4.90;4.40;;;;;;;21.95;64.38;98849.25;1710010;82;21063;-82
2021/06/10 11:12:52;;;;;;;5.45;4.62;;;;;;;21.98;64.78;98841.42;1713785;82;21300;-71
2021/06/10 11:15:29;;;;;;;5.42;4.35;;;;;;;22.00;65.99;98838.41;1691834;83;21093;-72
2021/06/10 11:18:01;;;;;;;7.95;4.72;;;;;;;22.15;64.95;98836.95;1708387;82;21081;-74
2021/06/10 11:20:41;;;;;;;5.85;4.67;;;;;;;22.22;65.39;98844.68;1739963;81;21026;-71
2021/06/10 11:23:17;;;;;;;7.17;4.62;;;;;;;22.34;65.66;98833.61;1742075;82;20932;-77
2021/06/10 11:25:46;;;;;;;5.78;4.55;;;;;;;22.54;65.54;98833.81;1726153;82;21165;-71
2021/06/10 11:28:28;;;;;;;6.72;4.55;;;;;;;22.67;66.18;98824.50;1703167;83;21022;-72
2021/06/10 11:31:22;;;;;;;6.97;4.12;;;;;;;22.73;64.10;98824.84;1708279;83;21050;-72
2021/06/10 11:33:49;;;;;;;4.60;4.20;;;;;;;22.80;64.68;98819.21;1695494;83;20956;-71
2021/06/10 11:36:17;;;;;;;5.58;4.33;;;;;;;22.99;63.15;98825.61;1702038;83;21552;-71
2021/06/10 11:38:48;;;;;;;5.45;4.22;;;;;;;23.04;61.60;98820.95;1697385;83;21154;-71